createdAt,value
2022-10-07T00:01:13.546Z,101461.94
2022-10-07T00:03:42.634Z,101463.69
2022-10-07T00:06:14.435Z,101469.00
2022-10-07T00:08:44.793Z,101472.53
2022-10-07T00:11:15.032Z,101467.25
2022-10-07T00:13:44.303Z,101460.19
2022-10-07T00:16:16.200Z,101467.22
2022-10-07T00:18:44.753Z,101456.63
2022-10-07T00:21:15.043Z,101467.19
2022-10-07T00:23:45.642Z,101458.31
2022-10-07T00:26:15.618Z,101456.59
2022-10-07T00:28:44.653Z,101446.03
2022-10-07T00:31:16.093Z,101444.22
2022-10-07T00:33:44.223Z,101437.97
2022-10-07T00:36:17.063Z,101433.63
2022-10-07T00:38:45.435Z,101438.00
2022-10-07T00:41:19.369Z,101441.50
2022-10-07T00:43:48.635Z,101441.50
2022-10-07T00:46:27.439Z,101429.19
2022-10-07T00:48:56.946Z,101414.16
2022-10-07T00:51:25.527Z,101420.31
2022-10-07T00:53:56.407Z,101423.84
2022-10-07T00:56:27.114Z,101418.59
2022-10-07T00:58:55.441Z,101414.16
2022-10-07T01:01:25.573Z,101417.72
2022-10-07T01:03:54.919Z,101415.91
2022-10-07T01:06:23.835Z,101414.16
2022-10-07T01:08:54.174Z,101406.22
2022-10-07T01:11:40.519Z,101402.75
2022-10-07T01:14:14.060Z,101391.31
2022-10-07T01:16:52.702Z,101385.13
2022-10-07T01:19:43.297Z,101386.00
2022-10-07T01:22:22.043Z,101373.72
2022-10-07T01:25:00.382Z,101385.09
2022-10-07T01:27:31.489Z,101384.19
2022-10-07T01:30:03.894Z,101384.19
2022-10-07T01:32:37.080Z,101371.88
2022-10-07T01:35:10.935Z,101377.09
2022-10-07T01:37:44.577Z,101384.09
2022-10-07T01:40:17.233Z,101354.19
2022-10-07T01:42:47.795Z,101378.81
2022-10-07T01:45:21.650Z,101366.44
2022-10-07T01:47:50.575Z,101368.16
2022-10-07T01:50:23.328Z,101358.47
2022-10-07T01:53:16.746Z,101349.66
2022-10-07T01:56:12.564Z,101346.09
2022-10-07T01:59:04.789Z,101337.31
2022-10-07T02:01:40.984Z,101331.13
2022-10-07T02:04:20.665Z,101331.16
2022-10-07T02:06:59.081Z,101329.38
2022-10-07T02:09:33.301Z,101336.44
2022-10-07T02:12:08.729Z,101319.72
2022-10-07T02:14:44.523Z,101322.44
2022-10-07T02:17:16.908Z,101320.66
2022-10-07T02:19:49.285Z,101320.66
2022-10-07T02:22:19.981Z,101310.06
2022-10-07T02:24:49.453Z,101301.28
2022-10-07T02:27:24.333Z,101287.28
2022-10-07T02:29:58.288Z,101292.53
2022-10-07T02:32:29.033Z,101299.63
2022-10-07T02:35:03.293Z,101290.75
2022-10-07T02:37:35.420Z,101285.41
2022-10-07T02:40:09.658Z,101283.56
2022-10-07T02:42:48.643Z,101274.75
2022-10-07T02:45:26.820Z,101281.81
2022-10-07T02:48:00.221Z,101273.00
2022-10-07T02:50:37.547Z,101269.41
2022-10-07T02:53:07.526Z,101243.84
2022-10-07T02:55:36.892Z,101264.91
2022-10-07T02:58:08.767Z,101270.19
2022-10-07T03:00:44.480Z,101258.66
2022-10-07T03:03:12.868Z,101256.94
2022-10-07T03:05:41.962Z,101259.53
2022-10-07T03:08:11.372Z,101247.97
2022-10-07T03:10:40.633Z,101248.00
2022-10-07T03:13:08.801Z,101233.88
2022-10-07T03:15:42.521Z,101245.31
2022-10-07T03:18:26.882Z,101248.94
2022-10-07T03:20:56.483Z,101242.75
2022-10-07T03:23:30.342Z,101239.28
2022-10-07T03:26:00.815Z,101230.50
2022-10-07T03:28:32.376Z,101229.59
2022-10-07T03:31:08.531Z,101211.22
2022-10-07T03:33:37.558Z,101219.88
2022-10-07T03:36:06.521Z,101219.00
2022-10-07T03:38:35.045Z,101207.50
2022-10-07T03:41:04.738Z,101214.53
2022-10-07T03:43:33.721Z,101202.09
2022-10-07T03:46:02.503Z,101195.06
2022-10-07T03:48:32.455Z,101200.34
2022-10-07T03:51:00.533Z,101198.53
2022-10-07T03:53:29.886Z,101194.94
2022-10-07T03:55:58.458Z,101201.97
2022-10-07T03:58:26.886Z,101188.69
2022-10-07T04:01:05.770Z,101182.53
2022-10-07T04:03:35.675Z,101179.06
2022-10-07T04:06:05.443Z,101187.84
2022-10-07T04:08:34.929Z,101183.38
2022-10-07T04:11:04.881Z,101183.34
2022-10-07T04:13:34.182Z,101171.78
2022-10-07T04:16:09.417Z,101164.69
2022-10-07T04:18:39.587Z,101159.41
2022-10-07T04:21:07.681Z,101157.66
2022-10-07T04:23:36.270Z,101151.53
2022-10-07T04:26:09.566Z,101153.31
2022-10-07T04:28:38.748Z,101141.84
2022-10-07T04:31:08.867Z,101140.06
2022-10-07T04:33:42.686Z,101147.97
2022-10-07T04:36:13.070Z,101140.91
2022-10-07T04:38:42.780Z,101132.81
2022-10-07T04:41:11.434Z,101131.09
2022-10-07T04:43:39.904Z,101142.53
2022-10-07T04:46:10.872Z,101120.47
2022-10-07T04:48:40.942Z,101122.16
2022-10-07T04:51:11.367Z,101118.66
2022-10-07T04:53:40.083Z,101127.41
2022-10-07T04:56:09.891Z,101120.31
2022-10-07T04:58:38.512Z,101116.78
2022-10-07T05:01:10.723Z,101111.50
2022-10-07T05:03:42.030Z,101120.38
2022-10-07T05:06:10.819Z,101102.63
2022-10-07T05:08:39.033Z,101100.91
2022-10-07T05:11:07.306Z,101095.63
2022-10-07T05:13:36.348Z,101099.19
2022-10-07T05:16:04.799Z,101107.13
2022-10-07T05:18:33.535Z,101100.91
2022-10-07T05:21:06.657Z,101090.44
2022-10-07T05:23:36.899Z,101099.06
2022-10-07T05:26:08.423Z,101096.44
2022-10-07T05:28:36.877Z,101091.97
2022-10-07T05:31:06.962Z,101083.16
2022-10-07T05:33:35.920Z,101086.63
2022-10-07T05:36:06.681Z,101092.75
2022-10-07T05:38:35.065Z,101093.59
2022-10-07T05:41:05.699Z,101091.03
2022-10-07T05:43:36.614Z,101074.16
2022-10-07T05:46:07.230Z,101090.06
2022-10-07T05:48:39.197Z,101085.66
2022-10-07T05:51:10.255Z,101090.09
2022-10-07T05:53:41.449Z,101082.84
2022-10-07T05:56:12.375Z,101086.56
2022-10-07T05:58:41.082Z,101090.00
2022-10-07T06:01:14.975Z,101097.03
2022-10-07T06:03:44.109Z,101102.31
2022-10-07T06:06:13.640Z,101097.13
2022-10-07T06:08:42.210Z,101083.00
2022-10-07T06:11:31.278Z,101095.41
2022-10-07T06:13:59.640Z,101092.66
2022-10-07T06:16:28.322Z,101093.50
2022-10-07T06:18:57.598Z,101087.19
2022-10-07T06:21:28.903Z,101095.16
2022-10-07T06:23:58.606Z,101087.28
2022-10-07T06:26:26.658Z,101086.41
2022-10-07T06:28:54.988Z,101089.03
2022-10-07T06:31:25.775Z,101095.16
2022-10-07T06:33:54.490Z,101083.66
2022-10-07T06:36:23.253Z,101075.63
2022-10-07T06:38:55.293Z,101066.69
2022-10-07T06:41:24.421Z,101084.41
2022-10-07T06:43:57.486Z,101073.84
2022-10-07T06:46:25.886Z,101083.41
2022-10-07T06:48:54.215Z,101075.47
2022-10-07T06:51:23.545Z,101078.94
2022-10-07T06:53:55.066Z,101076.25
2022-10-07T06:56:23.374Z,101072.81
2022-10-07T06:58:51.518Z,101073.66
2022-10-07T07:01:20.446Z,101070.94
2022-10-07T07:03:49.142Z,101067.41
2022-10-07T07:06:17.292Z,101071.78
2022-10-07T07:08:46.225Z,101070.16
2022-10-07T07:11:33.604Z,101078.13
2022-10-07T07:14:02.499Z,101080.81
2022-10-07T07:16:31.288Z,101079.00
2022-10-07T07:19:02.108Z,101068.38
2022-10-07T07:21:31.020Z,101070.16
2022-10-07T07:23:59.766Z,101084.44
2022-10-07T07:26:29.525Z,101073.94
2022-10-07T07:28:59.694Z,101075.66
2022-10-07T07:31:29.461Z,101063.97
2022-10-07T07:33:57.873Z,101049.88
2022-10-07T07:36:27.027Z,101068.41
2022-10-07T07:38:57.476Z,101073.84
2022-10-07T07:41:27.426Z,101077.28
2022-10-07T07:43:59.313Z,101077.44
2022-10-07T07:46:30.748Z,101077.44
2022-10-07T07:48:59.270Z,101072.09
2022-10-07T07:51:27.677Z,101075.56
2022-10-07T07:53:56.028Z,101073.72
2022-10-07T07:56:24.723Z,101057.88
2022-10-07T07:58:52.724Z,101060.50
2022-10-07T08:01:22.615Z,101054.25
2022-10-07T08:03:51.164Z,101057.69
2022-10-07T08:06:21.097Z,101063.09
2022-10-07T08:08:49.571Z,101057.78
2022-10-07T08:11:19.567Z,101053.31
2022-10-07T08:13:48.525Z,101055.13
2022-10-07T08:16:19.364Z,101042.78
2022-10-07T08:18:50.354Z,101040.00
2022-10-07T08:21:23.539Z,101050.78
2022-10-07T08:23:54.476Z,101050.88
2022-10-07T08:26:23.456Z,101049.88
2022-10-07T08:28:51.633Z,101049.13
2022-10-07T08:31:20.840Z,101043.91
2022-10-07T08:33:51.632Z,101035.16
2022-10-07T08:36:22.620Z,101043.84
2022-10-07T08:38:52.362Z,101042.97
2022-10-07T08:41:37.982Z,101048.97
2022-10-07T08:44:19.164Z,101040.31
2022-10-07T08:46:56.621Z,101033.28
2022-10-07T08:49:36.687Z,101036.81
2022-10-07T08:52:15.822Z,101030.66
2022-10-07T08:54:46.412Z,101041.09
2022-10-07T08:57:22.292Z,101023.56
2022-10-07T08:59:57.407Z,101033.34
2022-10-07T09:02:32.491Z,101020.09
2022-10-07T09:05:09.726Z,101029.06
2022-10-07T09:07:48.435Z,101026.28
2022-10-07T09:10:31.581Z,101017.53
2022-10-07T09:13:03.336Z,101013.13
2022-10-07T09:15:41.441Z,101015.84
2022-10-07T09:18:17.614Z,101015.75
2022-10-07T09:20:53.804Z,101017.47
2022-10-07T09:23:25.162Z,101012.19
2022-10-07T09:25:53.825Z,101010.47
2022-10-07T09:28:27.324Z,101015.75
2022-10-07T09:30:56.485Z,100992.75
2022-10-07T09:33:26.380Z,101003.16
2022-10-07T09:35:58.066Z,100994.47
2022-10-07T09:38:37.589Z,100976.84
2022-10-07T09:41:18.002Z,100985.53
2022-10-07T09:43:59.887Z,100976.69
2022-10-07T09:46:37.522Z,100977.63
2022-10-07T09:49:07.351Z,100980.22
2022-10-07T09:51:40.630Z,100985.44
2022-10-07T09:54:22.187Z,100975.66
2022-10-07T09:56:57.751Z,100975.50
2022-10-07T09:59:27.731Z,100975.50
2022-10-07T10:01:58.966Z,100972.88
2022-10-07T10:04:32.577Z,100967.53
2022-10-07T10:07:06.941Z,100958.72
2022-10-07T10:09:36.236Z,100961.97
2022-10-07T10:12:16.493Z,100965.66
2022-10-07T10:14:49.398Z,100954.97
2022-10-07T10:17:31.491Z,100946.16
2022-10-07T10:20:28.178Z,100952.28
2022-10-07T10:22:58.933Z,100946.13
2022-10-07T10:25:56.352Z,100946.13
2022-10-07T10:28:36.912Z,100949.75
2022-10-07T10:31:11.164Z,100940.88
2022-10-07T10:33:47.275Z,100939.25
2022-10-07T10:36:21.260Z,100934.09
2022-10-07T10:39:02.066Z,100941.06
2022-10-07T10:41:37.278Z,100941.13
2022-10-07T10:44:23.962Z,100930.69
2022-10-07T10:47:01.381Z,100921.69
2022-10-07T10:49:34.450Z,100920.69
2022-10-07T10:52:26.862Z,100919.94
2022-10-07T10:55:16.107Z,100925.28
2022-10-07T10:58:00.430Z,100919.09
2022-10-07T11:00:38.228Z,100913.81
2022-10-07T11:03:32.276Z,100917.34
2022-10-07T11:06:05.574Z,100909.44
2022-10-07T11:08:38.589Z,100896.16
2022-10-07T11:11:12.553Z,100906.00
2022-10-07T11:13:46.987Z,100913.22
2022-10-07T11:16:20.831Z,100899.88
2022-10-07T11:18:53.314Z,100899.06
2022-10-07T11:21:27.268Z,100893.75
2022-10-07T11:24:02.318Z,100896.50
2022-10-07T11:26:37.971Z,100883.16
2022-10-07T11:29:20.113Z,100883.16
2022-10-07T11:31:57.298Z,100861.00
2022-10-07T11:34:36.348Z,100865.47
2022-10-07T11:37:11.328Z,100866.31
2022-10-07T11:39:40.321Z,100858.13
2022-10-07T11:42:17.700Z,100866.06
2022-10-07T11:44:55.961Z,100859.13
2022-10-07T11:47:29.351Z,100846.81
2022-10-07T11:50:03.332Z,100855.47
2022-10-07T11:52:38.141Z,100860.66
2022-10-07T11:55:10.494Z,100855.25
2022-10-07T11:57:44.138Z,100857.13
2022-10-07T12:00:26.710Z,100844.81
2022-10-07T12:02:56.104Z,100843.88
2022-10-07T12:05:58.213Z,100842.22
2022-10-07T12:08:31.246Z,100846.59
2022-10-07T12:11:44.318Z,100828.19
2022-10-07T12:14:36.076Z,100835.53
2022-10-07T12:17:22.650Z,100820.47
2022-10-07T12:20:23.900Z,100821.28
2022-10-07T12:23:49.004Z,100820.34
2022-10-07T12:26:48.797Z,100822.28
2022-10-07T12:30:02.222Z,100817.88
2022-10-07T12:33:01.023Z,100819.81
2022-10-07T12:35:54.049Z,100809.22
2022-10-07T12:38:26.051Z,100803.84
2022-10-07T12:41:25.021Z,100816.31
2022-10-07T12:44:06.703Z,100799.25
2022-10-07T12:46:50.993Z,100798.50
2022-10-07T12:49:27.145Z,100787.84
2022-10-07T12:51:58.843Z,100792.19
2022-10-07T12:54:33.473Z,100797.22
2022-10-07T12:57:03.922Z,100775.34
2022-10-07T12:59:53.434Z,100788.63
2022-10-07T13:03:07.388Z,100786.91
2022-10-07T13:06:16.694Z,100763.88
2022-10-07T13:09:30.057Z,100767.59
2022-10-07T13:12:26.538Z,100754.22
2022-10-07T13:15:05.532Z,100757.63
2022-10-07T13:17:42.958Z,100755.75
2022-10-07T13:20:27.422Z,100753.84
2022-10-07T13:22:58.071Z,100734.34
2022-10-07T13:25:26.576Z,100734.28
2022-10-07T13:27:57.675Z,100737.91
2022-10-07T13:30:40.606Z,100741.56
2022-10-07T13:33:21.298Z,100744.97
2022-10-07T13:35:50.290Z,100736.09
2022-10-07T13:38:27.822Z,100739.63
2022-10-07T13:41:02.500Z,100727.34
2022-10-07T13:43:33.140Z,100745.06
2022-10-07T13:46:05.489Z,100737.13
2022-10-07T13:48:35.703Z,100732.66
2022-10-07T13:51:05.183Z,100729.25
2022-10-07T13:53:39.129Z,100708.09
2022-10-07T13:56:18.153Z,100725.59
2022-10-07T13:58:47.835Z,100714.97
2022-10-07T14:01:20.181Z,100709.69
2022-10-07T14:04:22.786Z,100720.19
2022-10-07T14:06:57.989Z,100711.94
2022-10-07T14:09:42.801Z,100702.19
2022-10-07T14:12:15.202Z,100698.88
2022-10-07T14:14:46.409Z,100699.75
2022-10-07T14:17:25.042Z,100691.03
2022-10-07T14:19:56.792Z,100682.91
2022-10-07T14:22:30.575Z,100688.38
2022-10-07T14:25:03.050Z,100679.50
2022-10-07T14:27:54.981Z,100679.38
2022-10-07T14:30:29.550Z,100680.88
2022-10-07T14:33:30.227Z,100682.50
2022-10-07T14:36:11.201Z,100679.19
2022-10-07T14:38:39.976Z,100682.69
2022-10-07T14:41:10.033Z,100678.34
2022-10-07T14:43:41.639Z,100670.41
2022-10-07T14:46:12.192Z,100668.06
2022-10-07T14:48:40.515Z,100652.91
2022-10-07T14:51:09.271Z,100666.25
2022-10-07T14:53:38.793Z,100658.28
2022-10-07T14:56:07.408Z,100660.09
2022-10-07T14:58:37.029Z,100645.09
2022-10-07T15:01:07.904Z,100644.22
2022-10-07T15:03:36.437Z,100638.84
2022-10-07T15:06:05.557Z,100630.94
2022-10-07T15:08:33.859Z,100619.56
2022-10-07T15:11:02.987Z,100636.25
2022-10-07T15:13:31.207Z,100623.94
2022-10-07T15:16:00.936Z,100621.31
2022-10-07T15:18:29.161Z,100617.84
2022-10-07T15:20:58.169Z,100616.22
2022-10-07T15:23:28.335Z,100635.63
2022-10-07T15:25:56.565Z,100625.16
2022-10-07T15:28:24.803Z,100631.34
2022-10-07T15:30:53.409Z,100623.34
2022-10-07T15:33:23.263Z,100611.16
2022-10-07T15:35:53.368Z,100612.16
2022-10-07T15:38:21.780Z,100611.16
2022-10-07T15:40:54.844Z,100590.84
2022-10-07T15:43:23.214Z,100602.31
2022-10-07T15:45:51.586Z,100594.31
2022-10-07T15:48:23.400Z,100586.41
2022-10-07T15:50:54.652Z,100593.31
2022-10-07T15:53:24.239Z,100587.19
2022-10-07T15:55:54.785Z,100573.91
2022-10-07T15:58:24.764Z,100582.63
2022-10-07T16:01:01.062Z,100582.84
2022-10-07T16:03:33.630Z,100591.72
2022-10-07T16:06:04.355Z,100589.03
2022-10-07T16:08:33.323Z,100572.41
2022-10-07T16:11:03.489Z,100579.38
2022-10-07T16:13:31.919Z,100577.84
2022-10-07T16:16:03.040Z,100596.28
2022-10-07T16:18:36.588Z,100595.19
2022-10-07T16:21:07.971Z,100578.56
2022-10-07T16:23:37.710Z,100570.66
2022-10-07T16:26:06.658Z,100576.84
2022-10-07T16:29:02.236Z,100565.44
2022-10-07T16:31:31.549Z,100561.88
2022-10-07T16:34:00.302Z,100552.94
2022-10-07T16:36:31.096Z,100549.63
2022-10-07T16:39:00.746Z,100549.53
2022-10-07T16:41:29.467Z,100551.28
2022-10-07T16:43:58.362Z,100561.97
2022-10-07T16:46:27.639Z,100543.34
2022-10-07T16:48:56.445Z,100551.22
2022-10-07T16:51:26.878Z,100531.75
2022-10-07T16:54:01.726Z,100533.63
2022-10-07T16:56:30.981Z,100524.72
2022-10-07T16:59:01.217Z,100527.38
2022-10-07T17:01:30.817Z,100514.00
2022-10-07T17:04:00.862Z,100515.78
2022-10-07T17:06:31.631Z,100516.66
2022-10-07T17:09:04.690Z,100519.25
2022-10-07T17:11:34.805Z,100516.72
2022-10-07T17:14:05.747Z,100517.59
2022-10-07T17:16:37.819Z,100517.34
2022-10-07T17:19:07.517Z,100510.53
2022-10-07T17:21:37.283Z,100501.69
2022-10-07T17:24:07.745Z,100508.63
2022-10-07T17:26:36.235Z,100502.44
2022-10-07T17:29:06.784Z,100507.00
2022-10-07T17:31:36.327Z,100488.59
2022-10-07T17:34:04.596Z,100513.19
2022-10-07T17:36:33.638Z,100497.22
2022-10-07T17:39:02.279Z,100508.50
2022-10-07T17:41:33.545Z,100492.75
2022-10-07T17:44:04.887Z,100485.72
2022-10-07T17:46:36.801Z,100501.69
2022-10-07T17:49:05.523Z,100489.53
2022-10-07T17:51:34.866Z,100500.88
2022-10-07T17:54:05.222Z,100494.72
2022-10-07T17:56:35.935Z,100487.03
2022-10-07T17:59:05.536Z,100484.97
2022-10-07T18:01:36.570Z,100471.88
2022-10-07T18:04:07.247Z,100458.06
2022-10-07T18:06:37.594Z,100459.38
2022-10-07T18:09:09.519Z,100461.19
2022-10-07T18:11:56.546Z,100462.84
2022-10-07T18:14:42.585Z,100451.38
2022-10-07T18:17:12.747Z,100461.13
2022-10-07T18:19:41.382Z,100458.47
2022-10-07T18:22:12.434Z,100455.91
2022-10-07T18:24:40.825Z,100454.16
2022-10-07T18:27:10.991Z,100458.69
2022-10-07T18:29:40.022Z,100451.38
2022-10-07T18:32:09.308Z,100452.44
2022-10-07T18:34:37.929Z,100441.84
2022-10-07T18:37:06.098Z,100443.47
2022-10-07T18:39:34.660Z,100442.72
2022-10-07T18:42:04.722Z,100432.94
2022-10-07T18:44:34.600Z,100432.31
2022-10-07T18:47:03.363Z,100435.66
2022-10-07T18:49:31.533Z,100426.28
2022-10-07T18:51:59.689Z,100421.66
2022-10-07T18:54:28.160Z,100418.97
2022-10-07T18:56:56.317Z,100420.53
2022-10-07T18:59:24.525Z,100411.88
2022-10-07T19:01:54.715Z,100402.91
2022-10-07T19:04:22.984Z,100399.53
2022-10-07T19:06:51.105Z,100399.53
2022-10-07T19:09:21.824Z,100392.47
2022-10-07T19:11:51.042Z,100399.53
2022-10-07T19:14:18.697Z,100376.56
2022-10-07T19:16:49.426Z,100388.84
2022-10-07T19:19:21.895Z,100390.75
2022-10-07T19:21:53.256Z,100376.56
2022-10-07T19:24:42.201Z,100378.25
2022-10-07T19:27:10.673Z,100369.47
2022-10-07T19:29:38.940Z,100374.84
2022-10-07T19:32:08.798Z,100367.72
2022-10-07T19:34:38.902Z,100365.00
2022-10-07T19:37:07.041Z,100363.22
2022-10-07T19:39:35.576Z,100358.03
2022-10-07T19:42:04.633Z,100366.72
2022-10-07T19:44:33.679Z,100359.50
2022-10-07T19:47:01.916Z,100365.00
2022-10-07T19:49:30.191Z,100358.69
2022-10-07T19:51:59.755Z,100362.22
2022-10-07T19:54:28.486Z,100353.38
2022-10-07T19:56:56.856Z,100358.78
2022-10-07T19:59:25.288Z,100357.59
2022-10-07T20:01:56.612Z,100345.44
2022-10-07T20:04:27.512Z,100350.66
2022-10-07T20:06:59.208Z,100349.91
2022-10-07T20:09:29.105Z,100349.09
2022-10-07T20:11:57.348Z,100342.88
2022-10-07T20:14:25.948Z,100356.94
2022-10-07T20:16:56.426Z,100360.59
2022-10-07T20:19:25.263Z,100372.13
2022-10-07T20:21:53.502Z,100365.72
2022-10-07T20:24:21.675Z,100380.78
2022-10-07T20:26:51.226Z,100374.84
2022-10-07T20:29:24.686Z,100380.16
2022-10-07T20:31:53.813Z,100390.91
2022-10-07T20:34:22.444Z,100375.00
2022-10-07T20:36:50.830Z,100379.09
2022-10-07T20:39:38.007Z,100366.19
2022-10-07T20:42:25.689Z,100369.06
2022-10-07T20:44:54.699Z,100370.94
2022-10-07T20:47:25.899Z,100376.25
2022-10-07T20:49:56.630Z,100371.53
2022-10-07T20:52:26.562Z,100376.16
2022-10-07T20:54:55.479Z,100371.66
2022-10-07T20:57:27.635Z,100366.31
2022-10-07T20:59:56.472Z,100357.53
2022-10-07T21:02:25.676Z,100353.16
2022-10-07T21:04:53.978Z,100349.81
2022-10-07T21:07:22.134Z,100350.56
2022-10-07T21:09:50.532Z,100313.75
2022-10-07T21:12:19.518Z,100334.75
2022-10-07T21:14:49.939Z,100348.53
2022-10-07T21:17:18.200Z,100327.22
2022-10-07T21:19:46.562Z,100315.63
2022-10-07T21:22:14.793Z,100302.38
2022-10-07T21:24:42.903Z,100289.91
2022-10-07T21:27:11.656Z,100287.31
2022-10-07T21:29:41.403Z,100296.28
2022-10-07T21:32:12.191Z,100305.13
2022-10-07T21:34:40.620Z,100304.97
2022-10-07T21:37:08.743Z,100316.44
2022-10-07T21:39:38.670Z,100315.56
2022-10-07T21:42:07.040Z,100313.81
2022-10-07T21:44:35.729Z,100298.84
2022-10-07T21:47:05.221Z,100298.78
2022-10-07T21:49:35.044Z,100297.03
2022-10-07T21:52:03.462Z,100293.72
2022-10-07T21:54:31.604Z,100300.69
2022-10-07T21:57:00.159Z,100304.28
2022-10-07T21:59:28.397Z,100295.38
2022-10-07T22:01:56.972Z,100297.97
2022-10-07T22:04:29.700Z,100298.84
2022-10-07T22:07:16.713Z,100307.69
2022-10-07T22:09:45.058Z,100291.88
2022-10-07T22:12:15.425Z,100286.59
2022-10-07T22:14:44.682Z,100274.03
2022-10-07T22:17:14.448Z,100281.84
2022-10-07T22:19:42.613Z,100285.34
2022-10-07T22:22:13.006Z,100282.78
2022-10-07T22:24:42.550Z,100277.34
2022-10-07T22:27:10.857Z,100279.16
2022-10-07T22:29:39.808Z,100273.00
2022-10-07T22:32:08.154Z,100265.94
2022-10-07T22:34:53.792Z,100267.72
2022-10-07T22:37:23.929Z,100273.94
2022-10-07T22:39:52.151Z,100279.16
2022-10-07T22:42:20.227Z,100269.75
2022-10-07T22:44:48.591Z,100273.94
2022-10-07T22:47:16.948Z,100276.50
2022-10-07T22:49:45.140Z,100274.59
2022-10-07T22:52:13.393Z,100268.72
2022-10-07T22:54:43.278Z,100271.44
2022-10-07T22:57:11.569Z,100261.59
2022-10-07T22:59:40.201Z,100256.38
2022-10-07T23:02:09.604Z,100250.28
2022-10-07T23:04:37.930Z,100244.16
2022-10-07T23:07:06.324Z,100244.25
2022-10-07T23:09:34.759Z,100242.53
2022-10-07T23:12:06.047Z,100248.78
2022-10-07T23:14:34.328Z,100240.84
2022-10-07T23:17:02.486Z,100253.44
2022-10-07T23:19:31.139Z,100258.75
2022-10-07T23:22:00.646Z,100246.44
2022-10-07T23:24:29.156Z,100247.59
2022-10-07T23:26:57.233Z,100254.47
2022-10-07T23:29:27.431Z,100255.53
2022-10-07T23:31:55.519Z,100261.88
2022-10-07T23:34:23.929Z,100256.63
2022-10-07T23:36:55.467Z,100253.97
2022-10-07T23:39:24.075Z,100258.72
2022-10-07T23:41:52.122Z,100261.34
2022-10-07T23:44:20.518Z,100261.53
2022-10-07T23:46:51.850Z,100253.63
2022-10-07T23:49:20.067Z,100271.19
2022-10-07T23:51:48.917Z,100270.53
2022-10-07T23:54:17.292Z,100260.22
2022-10-07T23:56:45.369Z,100247.31
2022-10-07T23:59:13.670Z,100265.78
